MAPA DE AEROPUERTO

INFORMACIÓN METAR y TAF

METAR FOR LEBB
ADDS - METARS form results

(1218 UTC 26 February 2021)
Data provider http://aviationweather.gov/metar/data/
 
METAR text: LEBB 261200Z 29005KT 250V310 9999 BKN020 BKN038 13/10 Q1033 NOSIG
Conditions at: LEBB (BILBAO/SONDICA , ES) observed 1200 UTC 26 February 2021
Temperature: 13.0°C (55°F)
Dewpoint: 10.0°C (50°F) [RH = 82%]
Pressure (altimeter): 30.50 inches Hg (1033.0 mb)
Winds: from the WNW (290 degrees) at 6 MPH (5 knots; 2.6 m/s)
Visibility: 6 or more miles (10+ km)
Ceiling: 2000 feet AGL
Clouds: broken clouds at 2000 feet AGL
broken clouds at 3800 feet AGL
Weather: no significant weather observed at this time

METAR text: LEBB 261130Z 00000KT 9999 FEW015 BKN022 BKN042 14/09 Q1033 NOSIG
Conditions at: LEBB (BILBAO/SONDICA , ES) observed 1130 UTC 26 February 2021
Temperature: 14.0°C (57°F)
Dewpoint: 9.0°C (48°F) [RH = 72%]
Pressure (altimeter): 30.50 inches Hg (1033.0 mb)
Winds: calm
Visibility: 6 or more miles (10+ km)
Ceiling: 2200 feet AGL
Clouds: few clouds at 1500 feet AGL
broken clouds at 2200 feet AGL
broken clouds at 4200 feet AGL
Weather: no significant weather observed at this time

Forecast for: LEBB (BILBAO/SONDICA , ES)
Text: TAF LEBB 261100Z 2612/2712 VRB06KT 9999 FEW015 BKN025 TX15/2615Z TN10/2706Z
Forecast period: 1200 UTC 26 February 2021 to 1200 UTC 27 February 2021
Forecast type: FROM: standard forecast or significant change
Winds: variable direction winds at 7 MPH (6 knots; 3.1 m/s)
Visibility: 6 or more miles (10+ km)
Ceiling: 2500 feet AGL
Clouds: few clouds at 1500 feet AGL
broken clouds at 2500 feet AGL
Weather: no significant weather forecast for this period
Text: PROB30
Forecast period: 1200 to 1800 UTC 26 February 2021
Forecast type: TEMPORARY: The following changes expected for less than half the time period
Visibility: missing
Ceiling: 1400 feet AGL
Clouds: broken clouds at 1400 feet AGL
Weather: no significant weather forecast for this period
Text: TEMPO 2612/2618 BKN014
Forecast period: 1800 UTC 26 February 2021 to 1000 UTC 27 February 2021
Forecast type: TEMPORARY: The following changes expected for less than half the time period
Visibility: missing
Ceiling: 1400 feet AGL
Clouds: broken clouds at 1400 feet AGL
Weather: no significant weather forecast for this period
Text: TEMPO 2618/2710 BKN014
Forecast period: 1800 UTC 26 February 2021 to 0900 UTC 27 February 2021
Forecast type: TEMPORARY: The following changes expected for less than half the time period
Visibility: 1.86 miles (2.99 km)
Ceiling: 1000 feet AGL
Clouds: broken clouds at 1000 feet AGL
Weather: -DZ BR  (light drizzle, mist)